X  Schlie├čen Metar Luftfahrt Wetterdaten     EKVJ Stauning Airport
Temperatur
-2°C Temperatur
-3°C Taupunkt
93% Feuchtigkeit



Wind
3 M/S
7 MPH
11 KM/H
6 KTS



30°
NNO
Aktuelle Wetterlage

Meistens vereinzelte Wolken Meistens vereinzelte Wolken
Luftdruck 1021.92 (hPa) - 30.18 (inHg)
Sichtweite 6.2 (Meile) - 10 (km)
Flughafen
Flughafen Code EKVJ

Position : Stauning Airport
Entfernung: 14 (km)

Metar:
EKVJ 140850Z 03006KT 9999 SCT015 BKN022 M02/M03 Q1022

Zeit: 01-14-2021 09:50 CET